sensor_id;sensor_type;location;lat;lon;timestamp;temperature;humidity
26595;DHT22;14238;49.496;8.154;2023-04-24T00:01:41;11.40;99.90
26595;DHT22;14238;49.496;8.154;2023-04-24T00:04:08;11.40;99.90
26595;DHT22;14238;49.496;8.154;2023-04-24T00:06:36;11.40;99.90
26595;DHT22;14238;49.496;8.154;2023-04-24T00:09:03;11.50;99.90
26595;DHT22;14238;49.496;8.154;2023-04-24T00:11:29;11.50;99.90
26595;DHT22;14238;49.496;8.154;2023-04-24T00:13:56;11.50;99.90
26595;DHT22;14238;49.496;8.154;2023-04-24T00:16:22;11.50;99.90
26595;DHT22;14238;49.496;8.154;2023-04-24T00:18:48;11.40;99.90
26595;DHT22;14238;49.496;8.154;2023-04-24T00:21:15;11.40;99.90
26595;DHT22;14238;49.496;8.154;2023-04-24T00:23:43;11.40;99.90
26595;DHT22;14238;49.496;8.154;2023-04-24T00:26:09;11.40;99.90
26595;DHT22;14238;49.496;8.154;2023-04-24T00:28:34;11.50;99.90
26595;DHT22;14238;49.496;8.154;2023-04-24T00:31:00;11.50;99.90
26595;DHT22;14238;49.496;8.154;2023-04-24T00:33:25;11.60;99.90
26595;DHT22;14238;49.496;8.154;2023-04-24T00:35:51;11.70;99.90
26595;DHT22;14238;49.496;8.154;2023-04-24T00:38:16;11.70;99.90
26595;DHT22;14238;49.496;8.154;2023-04-24T00:40:42;11.70;99.90
26595;DHT22;14238;49.496;8.154;2023-04-24T00:43:07;11.70;99.90
26595;DHT22;14238;49.496;8.154;2023-04-24T00:45:33;11.60;99.90
26595;DHT22;14238;49.496;8.154;2023-04-24T00:48:00;11.50;99.90
26595;DHT22;14238;49.496;8.154;2023-04-24T00:50:26;11.50;99.90
26595;DHT22;14238;49.496;8.154;2023-04-24T00:52:51;11.40;99.90
26595;DHT22;14238;49.496;8.154;2023-04-24T00:55:18;11.40;99.90
26595;DHT22;14238;49.496;8.154;2023-04-24T00:57:44;11.50;99.90
26595;DHT22;14238;49.496;8.154;2023-04-24T01:00:10;11.60;99.90
26595;DHT22;14238;49.496;8.154;2023-04-24T01:02:41;11.70;99.90
26595;DHT22;14238;49.496;8.154;2023-04-24T01:05:12;11.70;99.90
26595;DHT22;14238;49.496;8.154;2023-04-24T01:07:39;11.80;99.90
26595;DHT22;14238;49.496;8.154;2023-04-24T01:10:07;11.80;99.90
26595;DHT22;14238;49.496;8.154;2023-04-24T01:12:33;11.80;99.90
26595;DHT22;14238;49.496;8.154;2023-04-24T01:14:59;11.80;99.90
26595;DHT22;14238;49.496;8.154;2023-04-24T01:17:24;11.80;99.90
26595;DHT22;14238;49.496;8.154;2023-04-24T01:19:50;11.80;99.90
26595;DHT22;14238;49.496;8.154;2023-04-24T01:22:19;11.80;99.90
26595;DHT22;14238;49.496;8.154;2023-04-24T01:24:46;11.90;99.90
26595;DHT22;14238;49.496;8.154;2023-04-24T01:27:12;11.80;99.90
26595;DHT22;14238;49.496;8.154;2023-04-24T01:29:38;11.80;99.90
26595;DHT22;14238;49.496;8.154;2023-04-24T01:32:04;11.80;99.90
26595;DHT22;14238;49.496;8.154;2023-04-24T01:34:30;11.80;99.90
26595;DHT22;14238;49.496;8.154;2023-04-24T01:36:55;11.90;99.90
26595;DHT22;14238;49.496;8.154;2023-04-24T01:39:22;11.90;99.90
26595;DHT22;14238;49.496;8.154;2023-04-24T01:41:51;11.80;99.90
26595;DHT22;14238;49.496;8.154;2023-04-24T01:44:17;11.90;99.90
26595;DHT22;14238;49.496;8.154;2023-04-24T01:46:43;11.90;99.90
26595;DHT22;14238;49.496;8.154;2023-04-24T01:49:09;11.90;99.90
26595;DHT22;14238;49.496;8.154;2023-04-24T01:51:34;11.90;99.90
26595;DHT22;14238;49.496;8.154;2023-04-24T01:54:00;11.90;99.90
26595;DHT22;14238;49.496;8.154;2023-04-24T01:56:33;11.80;99.90
26595;DHT22;14238;49.496;8.154;2023-04-24T01:58:59;11.80;99.90
26595;DHT22;14238;49.496;8.154;2023-04-24T02:01:25;11.70;99.90
26595;DHT22;14238;49.496;8.154;2023-04-24T02:03:51;11.60;99.90
26595;DHT22;14238;49.496;8.154;2023-04-24T02:06:18;11.50;99.90
26595;DHT22;14238;49.496;8.154;2023-04-24T02:08:43;11.40;99.90
26595;DHT22;14238;49.496;8.154;2023-04-24T02:11:09;11.10;99.90
26595;DHT22;14238;49.496;8.154;2023-04-24T02:13:35;11.00;99.90
26595;DHT22;14238;49.496;8.154;2023-04-24T02:16:01;10.80;99.90
26595;DHT22;14238;49.496;8.154;2023-04-24T02:18:26;10.60;99.90
26595;DHT22;14238;49.496;8.154;2023-04-24T02:20:52;10.60;99.90
26595;DHT22;14238;49.496;8.154;2023-04-24T02:23:18;10.50;99.90
26595;DHT22;14238;49.496;8.154;2023-04-24T02:25:43;10.30;99.90
26595;DHT22;14238;49.496;8.154;2023-04-24T02:28:09;10.30;99.90
26595;DHT22;14238;49.496;8.154;2023-04-24T02:30:34;10.30;99.90
26595;DHT22;14238;49.496;8.154;2023-04-24T02:33:00;10.10;99.90
26595;DHT22;14238;49.496;8.154;2023-04-24T02:35:26;10.10;99.90
26595;DHT22;14238;49.496;8.154;2023-04-24T02:37:51;10.10;99.90
26595;DHT22;14238;49.496;8.154;2023-04-24T02:40:17;10.10;99.90
26595;DHT22;14238;49.496;8.154;2023-04-24T02:42:42;10.10;99.90
26595;DHT22;14238;49.496;8.154;2023-04-24T02:45:08;10.00;99.90
26595;DHT22;14238;49.496;8.154;2023-04-24T02:47:34;9.90;99.90
26595;DHT22;14238;49.496;8.154;2023-04-24T02:50:00;9.90;99.90
26595;DHT22;14238;49.496;8.154;2023-04-24T02:52:25;10.00;99.90
26595;DHT22;14238;49.496;8.154;2023-04-24T02:54:51;9.90;99.90
26595;DHT22;14238;49.496;8.154;2023-04-24T02:57:16;9.90;99.90
26595;DHT22;14238;49.496;8.154;2023-04-24T02:59:42;9.80;99.90
26595;DHT22;14238;49.496;8.154;2023-04-24T03:02:07;9.80;99.90
26595;DHT22;14238;49.496;8.154;2023-04-24T03:04:33;9.70;99.90
26595;DHT22;14238;49.496;8.154;2023-04-24T03:06:58;9.70;99.90
26595;DHT22;14238;49.496;8.154;2023-04-24T03:09:24;9.60;99.90
26595;DHT22;14238;49.496;8.154;2023-04-24T03:11:50;9.60;99.90
26595;DHT22;14238;49.496;8.154;2023-04-24T03:14:16;9.60;99.90
26595;DHT22;14238;49.496;8.154;2023-04-24T03:16:41;9.40;99.90
26595;DHT22;14238;49.496;8.154;2023-04-24T03:19:07;9.40;99.90
26595;DHT22;14238;49.496;8.154;2023-04-24T03:21:33;9.30;99.90
26595;DHT22;14238;49.496;8.154;2023-04-24T03:23:58;9.30;99.90
26595;DHT22;14238;49.496;8.154;2023-04-24T03:26:24;9.20;99.90
26595;DHT22;14238;49.496;8.154;2023-04-24T03:28:50;9.20;99.90
26595;DHT22;14238;49.496;8.154;2023-04-24T03:31:15;9.20;99.90
26595;DHT22;14238;49.496;8.154;2023-04-24T03:33:42;9.10;99.90
26595;DHT22;14238;49.496;8.154;2023-04-24T03:36:07;9.10;99.90
26595;DHT22;14238;49.496;8.154;2023-04-24T03:38:33;9.10;99.90
26595;DHT22;14238;49.496;8.154;2023-04-24T03:40:58;9.00;99.90
26595;DHT22;14238;49.496;8.154;2023-04-24T03:43:24;9.00;99.90
26595;DHT22;14238;49.496;8.154;2023-04-24T03:45:49;8.90;99.90
26595;DHT22;14238;49.496;8.154;2023-04-24T03:48:15;8.80;99.90
26595;DHT22;14238;49.496;8.154;2023-04-24T03:50:41;8.80;99.90
26595;DHT22;14238;49.496;8.154;2023-04-24T03:53:06;8.80;99.90
26595;DHT22;14238;49.496;8.154;2023-04-24T03:55:32;8.90;99.90
26595;DHT22;14238;49.496;8.154;2023-04-24T03:57:58;8.80;99.90
26595;DHT22;14238;49.496;8.154;2023-04-24T04:00:23;8.80;99.90
26595;DHT22;14238;49.496;8.154;2023-04-24T04:02:49;8.80;99.90
26595;DHT22;14238;49.496;8.154;2023-04-24T04:05:15;8.70;99.90
26595;DHT22;14238;49.496;8.154;2023-04-24T04:07:40;8.80;99.90
26595;DHT22;14238;49.496;8.154;2023-04-24T04:10:06;8.70;99.90
26595;DHT22;14238;49.496;8.154;2023-04-24T04:12:32;8.70;99.90
26595;DHT22;14238;49.496;8.154;2023-04-24T04:14:58;8.70;99.90
26595;DHT22;14238;49.496;8.154;2023-04-24T04:17:24;8.70;99.90
26595;DHT22;14238;49.496;8.154;2023-04-24T04:19:49;8.60;99.90
26595;DHT22;14238;49.496;8.154;2023-04-24T04:22:16;8.60;99.90
26595;DHT22;14238;49.496;8.154;2023-04-24T04:24:41;8.70;99.90
26595;DHT22;14238;49.496;8.154;2023-04-24T04:27:07;8.60;99.90
26595;DHT22;14238;49.496;8.154;2023-04-24T04:29:34;8.70;99.90
26595;DHT22;14238;49.496;8.154;2023-04-24T04:32:01;8.60;99.90
26595;DHT22;14238;49.496;8.154;2023-04-24T04:34:27;8.60;99.90
26595;DHT22;14238;49.496;8.154;2023-04-24T04:36:53;8.60;99.90
26595;DHT22;14238;49.496;8.154;2023-04-24T04:39:18;8.60;99.90
26595;DHT22;14238;49.496;8.154;2023-04-24T04:41:45;8.50;99.90
26595;DHT22;14238;49.496;8.154;2023-04-24T04:44:14;8.50;99.90
26595;DHT22;14238;49.496;8.154;2023-04-24T04:46:40;8.50;99.90
26595;DHT22;14238;49.496;8.154;2023-04-24T04:49:06;8.50;99.90
26595;DHT22;14238;49.496;8.154;2023-04-24T04:51:34;8.60;99.90
26595;DHT22;14238;49.496;8.154;2023-04-24T04:53:59;8.60;99.90
26595;DHT22;14238;49.496;8.154;2023-04-24T04:56:25;8.60;99.90
26595;DHT22;14238;49.496;8.154;2023-04-24T04:58:51;8.50;99.90
26595;DHT22;14238;49.496;8.154;2023-04-24T05:01:17;8.50;99.90
26595;DHT22;14238;49.496;8.154;2023-04-24T05:03:42;8.60;99.90
26595;DHT22;14238;49.496;8.154;2023-04-24T05:06:08;8.50;99.90
26595;DHT22;14238;49.496;8.154;2023-04-24T05:08:33;8.50;99.90
26595;DHT22;14238;49.496;8.154;2023-04-24T05:10:59;8.50;99.90
26595;DHT22;14238;49.496;8.154;2023-04-24T05:13:25;8.50;99.90
26595;DHT22;14238;49.496;8.154;2023-04-24T05:15:51;8.50;99.90
26595;DHT22;14238;49.496;8.154;2023-04-24T05:18:16;8.50;99.90
26595;DHT22;14238;49.496;8.154;2023-04-24T05:20:42;8.50;99.90
26595;DHT22;14238;49.496;8.154;2023-04-24T05:23:09;8.50;99.90
26595;DHT22;14238;49.496;8.154;2023-04-24T05:25:35;8.60;99.90
26595;DHT22;14238;49.496;8.154;2023-04-24T05:28:01;8.60;99.90
26595;DHT22;14238;49.496;8.154;2023-04-24T05:30:27;8.70;99.90
26595;DHT22;14238;49.496;8.154;2023-04-24T05:32:52;8.80;99.90
26595;DHT22;14238;49.496;8.154;2023-04-24T05:35:19;8.80;99.90
26595;DHT22;14238;49.496;8.154;2023-04-24T05:37:45;8.90;99.90
26595;DHT22;14238;49.496;8.154;2023-04-24T05:40:10;8.90;99.90
26595;DHT22;14238;49.496;8.154;2023-04-24T05:42:36;8.80;99.90
26595;DHT22;14238;49.496;8.154;2023-04-24T05:45:02;8.80;99.90
26595;DHT22;14238;49.496;8.154;2023-04-24T05:47:28;8.80;99.90
26595;DHT22;14238;49.496;8.154;2023-04-24T05:49:53;8.90;99.90
26595;DHT22;14238;49.496;8.154;2023-04-24T05:52:19;8.90;99.90
26595;DHT22;14238;49.496;8.154;2023-04-24T05:54:45;8.90;99.90
26595;DHT22;14238;49.496;8.154;2023-04-24T05:57:10;9.00;99.90
26595;DHT22;14238;49.496;8.154;2023-04-24T05:59:37;9.10;99.90
26595;DHT22;14238;49.496;8.154;2023-04-24T06:02:06;9.10;99.90
26595;DHT22;14238;49.496;8.154;2023-04-24T06:04:32;9.20;99.90
26595;DHT22;14238;49.496;8.154;2023-04-24T06:06:57;9.20;99.90
26595;DHT22;14238;49.496;8.154;2023-04-24T06:09:24;9.20;99.90
26595;DHT22;14238;49.496;8.154;2023-04-24T06:11:50;9.20;99.90
26595;DHT22;14238;49.496;8.154;2023-04-24T06:14:18;9.20;99.90
26595;DHT22;14238;49.496;8.154;2023-04-24T06:16:44;9.20;99.90
26595;DHT22;14238;49.496;8.154;2023-04-24T06:19:09;9.20;99.90
26595;DHT22;14238;49.496;8.154;2023-04-24T06:21:35;9.30;99.90
26595;DHT22;14238;49.496;8.154;2023-04-24T06:24:01;9.30;99.90
26595;DHT22;14238;49.496;8.154;2023-04-24T06:26:27;9.10;99.90
26595;DHT22;14238;49.496;8.154;2023-04-24T06:28:53;9.20;99.90
26595;DHT22;14238;49.496;8.154;2023-04-24T06:31:21;9.20;99.90
26595;DHT22;14238;49.496;8.154;2023-04-24T06:33:48;9.20;99.90
26595;DHT22;14238;49.496;8.154;2023-04-24T06:36:14;9.10;99.90
26595;DHT22;14238;49.496;8.154;2023-04-24T06:38:41;9.10;99.90
26595;DHT22;14238;49.496;8.154;2023-04-24T06:41:06;9.10;99.90
26595;DHT22;14238;49.496;8.154;2023-04-24T06:43:32;9.20;99.90
26595;DHT22;14238;49.496;8.154;2023-04-24T06:45:59;9.20;99.90
26595;DHT22;14238;49.496;8.154;2023-04-24T06:48:25;9.30;99.90
26595;DHT22;14238;49.496;8.154;2023-04-24T06:50:51;9.30;99.90
26595;DHT22;14238;49.496;8.154;2023-04-24T06:53:17;9.40;99.90
26595;DHT22;14238;49.496;8.154;2023-04-24T06:55:42;9.40;99.90
26595;DHT22;14238;49.496;8.154;2023-04-24T06:58:11;9.50;99.90
26595;DHT22;14238;49.496;8.154;2023-04-24T07:00:37;9.60;99.90
26595;DHT22;14238;49.496;8.154;2023-04-24T07:03:03;9.60;99.90
26595;DHT22;14238;49.496;8.154;2023-04-24T07:05:30;9.70;99.90
26595;DHT22;14238;49.496;8.154;2023-04-24T07:07:56;9.90;99.90
26595;DHT22;14238;49.496;8.154;2023-04-24T07:10:23;10.00;99.90
26595;DHT22;14238;49.496;8.154;2023-04-24T07:12:49;10.10;99.90
26595;DHT22;14238;49.496;8.154;2023-04-24T07:15:15;10.30;99.90
26595;DHT22;14238;49.496;8.154;2023-04-24T07:17:41;10.40;99.90
26595;DHT22;14238;49.496;8.154;2023-04-24T07:20:10;10.60;99.90
26595;DHT22;14238;49.496;8.154;2023-04-24T07:22:37;10.40;99.90
26595;DHT22;14238;49.496;8.154;2023-04-24T07:25:03;10.20;99.90
26595;DHT22;14238;49.496;8.154;2023-04-24T07:27:28;10.00;99.90
26595;DHT22;14238;49.496;8.154;2023-04-24T07:29:54;10.00;99.90
26595;DHT22;14238;49.496;8.154;2023-04-24T07:32:20;10.00;99.90
26595;DHT22;14238;49.496;8.154;2023-04-24T07:34:45;10.10;99.90
26595;DHT22;14238;49.496;8.154;2023-04-24T07:37:11;10.00;99.90
26595;DHT22;14238;49.496;8.154;2023-04-24T07:39:37;10.00;99.90
26595;DHT22;14238;49.496;8.154;2023-04-24T07:42:02;10.00;99.90
26595;DHT22;14238;49.496;8.154;2023-04-24T07:44:28;10.10;99.90
26595;DHT22;14238;49.496;8.154;2023-04-24T07:46:54;10.20;99.90
26595;DHT22;14238;49.496;8.154;2023-04-24T07:49:20;10.40;99.90
26595;DHT22;14238;49.496;8.154;2023-04-24T07:51:46;10.30;99.90
26595;DHT22;14238;49.496;8.154;2023-04-24T07:54:12;10.30;99.90
26595;DHT22;14238;49.496;8.154;2023-04-24T07:56:37;10.40;99.90
26595;DHT22;14238;49.496;8.154;2023-04-24T07:59:07;10.60;99.90
26595;DHT22;14238;49.496;8.154;2023-04-24T08:01:32;10.70;99.90
26595;DHT22;14238;49.496;8.154;2023-04-24T08:03:58;10.60;99.90
26595;DHT22;14238;49.496;8.154;2023-04-24T08:06:24;10.60;99.90
26595;DHT22;14238;49.496;8.154;2023-04-24T08:08:51;10.80;99.90
26595;DHT22;14238;49.496;8.154;2023-04-24T08:11:16;11.10;99.90
26595;DHT22;14238;49.496;8.154;2023-04-24T08:13:42;10.90;99.90
26595;DHT22;14238;49.496;8.154;2023-04-24T08:16:08;10.80;99.90
26595;DHT22;14238;49.496;8.154;2023-04-24T08:18:33;10.60;99.90
26595;DHT22;14238;49.496;8.154;2023-04-24T08:21:01;10.60;99.90
26595;DHT22;14238;49.496;8.154;2023-04-24T08:23:27;10.50;99.90
26595;DHT22;14238;49.496;8.154;2023-04-24T08:25:52;10.60;99.90
26595;DHT22;14238;49.496;8.154;2023-04-24T08:28:18;10.60;99.90
26595;DHT22;14238;49.496;8.154;2023-04-24T08:30:46;10.70;99.90
26595;DHT22;14238;49.496;8.154;2023-04-24T08:33:13;11.00;99.90
26595;DHT22;14238;49.496;8.154;2023-04-24T08:35:38;11.00;99.90
26595;DHT22;14238;49.496;8.154;2023-04-24T08:38:04;11.10;99.90
26595;DHT22;14238;49.496;8.154;2023-04-24T08:40:34;11.00;99.90
26595;DHT22;14238;49.496;8.154;2023-04-24T08:43:00;10.90;99.90
26595;DHT22;14238;49.496;8.154;2023-04-24T08:45:26;10.90;99.90
26595;DHT22;14238;49.496;8.154;2023-04-24T08:47:54;10.80;99.90
26595;DHT22;14238;49.496;8.154;2023-04-24T08:50:21;10.60;99.90
26595;DHT22;14238;49.496;8.154;2023-04-24T08:52:50;10.60;99.90
26595;DHT22;14238;49.496;8.154;2023-04-24T08:55:16;11.00;99.90
26595;DHT22;14238;49.496;8.154;2023-04-24T08:57:45;11.00;99.90
26595;DHT22;14238;49.496;8.154;2023-04-24T09:00:11;10.90;99.90
26595;DHT22;14238;49.496;8.154;2023-04-24T09:02:40;11.40;99.90
26595;DHT22;14238;49.496;8.154;2023-04-24T09:05:07;12.10;99.90
26595;DHT22;14238;49.496;8.154;2023-04-24T09:07:35;12.30;99.90
26595;DHT22;14238;49.496;8.154;2023-04-24T09:10:02;12.20;99.90
26595;DHT22;14238;49.496;8.154;2023-04-24T09:12:28;12.40;99.90
26595;DHT22;14238;49.496;8.154;2023-04-24T09:14:54;12.30;99.90
26595;DHT22;14238;49.496;8.154;2023-04-24T09:17:20;12.70;99.90
26595;DHT22;14238;49.496;8.154;2023-04-24T09:19:48;12.70;99.90
26595;DHT22;14238;49.496;8.154;2023-04-24T09:22:14;12.20;99.90
26595;DHT22;14238;49.496;8.154;2023-04-24T09:24:40;11.70;99.90
26595;DHT22;14238;49.496;8.154;2023-04-24T09:27:07;11.60;99.90
26595;DHT22;14238;49.496;8.154;2023-04-24T09:29:32;12.20;99.90
26595;DHT22;14238;49.496;8.154;2023-04-24T09:31:58;12.30;99.90
26595;DHT22;14238;49.496;8.154;2023-04-24T09:34:26;11.90;99.90
26595;DHT22;14238;49.496;8.154;2023-04-24T09:36:52;11.60;99.90
26595;DHT22;14238;49.496;8.154;2023-04-24T09:39:18;11.60;99.90
26595;DHT22;14238;49.496;8.154;2023-04-24T09:41:49;11.60;99.90
26595;DHT22;14238;49.496;8.154;2023-04-24T09:44:22;11.70;99.90
26595;DHT22;14238;49.496;8.154;2023-04-24T09:46:56;11.60;99.90
26595;DHT22;14238;49.496;8.154;2023-04-24T09:49:26;11.30;99.90
26595;DHT22;14238;49.496;8.154;2023-04-24T09:52:02;11.10;99.90
26595;DHT22;14238;49.496;8.154;2023-04-24T09:54:27;11.10;99.90
26595;DHT22;14238;49.496;8.154;2023-04-24T09:56:54;11.00;99.90
26595;DHT22;14238;49.496;8.154;2023-04-24T09:59:20;11.50;99.90
26595;DHT22;14238;49.496;8.154;2023-04-24T10:01:46;12.00;99.90
26595;DHT22;14238;49.496;8.154;2023-04-24T10:04:23;12.80;99.90
26595;DHT22;14238;49.496;8.154;2023-04-24T10:06:50;13.00;99.90
26595;DHT22;14238;49.496;8.154;2023-04-24T10:09:17;13.70;99.90
26595;DHT22;14238;49.496;8.154;2023-04-24T10:11:46;14.00;99.90
26595;DHT22;14238;49.496;8.154;2023-04-24T10:14:16;13.80;99.90
26595;DHT22;14238;49.496;8.154;2023-04-24T10:16:43;13.70;99.90
26595;DHT22;14238;49.496;8.154;2023-04-24T10:19:09;14.40;99.90
26595;DHT22;14238;49.496;8.154;2023-04-24T10:21:36;13.30;99.90
26595;DHT22;14238;49.496;8.154;2023-04-24T10:24:10;14.00;99.90
26595;DHT22;14238;49.496;8.154;2023-04-24T10:26:36;13.80;99.90
26595;DHT22;14238;49.496;8.154;2023-04-24T10:29:05;14.10;99.90
26595;DHT22;14238;49.496;8.154;2023-04-24T10:31:36;14.20;99.90
26595;DHT22;14238;49.496;8.154;2023-04-24T10:34:02;14.90;99.90
26595;DHT22;14238;49.496;8.154;2023-04-24T10:36:29;14.60;99.90
26595;DHT22;14238;49.496;8.154;2023-04-24T10:39:00;14.60;99.90
26595;DHT22;14238;49.496;8.154;2023-04-24T10:41:26;14.40;99.90
26595;DHT22;14238;49.496;8.154;2023-04-24T10:44:08;14.30;99.90
26595;DHT22;14238;49.496;8.154;2023-04-24T10:46:35;14.10;99.90
26595;DHT22;14238;49.496;8.154;2023-04-24T10:49:07;13.90;99.90
26595;DHT22;14238;49.496;8.154;2023-04-24T10:51:48;13.90;99.90
26595;DHT22;14238;49.496;8.154;2023-04-24T10:54:29;14.00;99.90
26595;DHT22;14238;49.496;8.154;2023-04-24T10:57:28;14.00;99.90
26595;DHT22;14238;49.496;8.154;2023-04-24T11:02:45;14.50;99.90
26595;DHT22;14238;49.496;8.154;2023-04-24T11:05:17;14.50;99.90
26595;DHT22;14238;49.496;8.154;2023-04-24T11:08:15;14.00;99.90
26595;DHT22;14238;49.496;8.154;2023-04-24T11:13:14;14.00;99.90
26595;DHT22;14238;49.496;8.154;2023-04-24T11:15:41;13.80;99.90
26595;DHT22;14238;49.496;8.154;2023-04-24T11:18:13;14.00;99.90
26595;DHT22;14238;49.496;8.154;2023-04-24T11:20:42;15.20;99.90
26595;DHT22;14238;49.496;8.154;2023-04-24T11:23:08;15.70;99.90
26595;DHT22;14238;49.496;8.154;2023-04-24T11:25:35;15.30;99.90
26595;DHT22;14238;49.496;8.154;2023-04-24T11:28:04;14.60;99.90
26595;DHT22;14238;49.496;8.154;2023-04-24T11:30:32;13.70;99.90
26595;DHT22;14238;49.496;8.154;2023-04-24T11:33:05;13.10;99.90
26595;DHT22;14238;49.496;8.154;2023-04-24T11:35:35;12.60;99.90
26595;DHT22;14238;49.496;8.154;2023-04-24T11:38:02;12.50;99.90
26595;DHT22;14238;49.496;8.154;2023-04-24T11:40:28;12.70;99.90
26595;DHT22;14238;49.496;8.154;2023-04-24T11:42:54;12.80;99.90
26595;DHT22;14238;49.496;8.154;2023-04-24T11:45:30;12.70;99.90
26595;DHT22;14238;49.496;8.154;2023-04-24T11:47:56;12.60;99.90
26595;DHT22;14238;49.496;8.154;2023-04-24T11:50:23;12.60;99.90
26595;DHT22;14238;49.496;8.154;2023-04-24T11:52:51;13.10;99.90
26595;DHT22;14238;49.496;8.154;2023-04-24T11:57:45;12.70;99.90
26595;DHT22;14238;49.496;8.154;2023-04-24T12:00:19;13.10;99.90
26595;DHT22;14238;49.496;8.154;2023-04-24T12:02:46;13.20;99.90
26595;DHT22;14238;49.496;8.154;2023-04-24T12:05:25;14.00;99.90
26595;DHT22;14238;49.496;8.154;2023-04-24T12:07:51;14.10;99.90
26595;DHT22;14238;49.496;8.154;2023-04-24T12:10:24;14.30;99.90
26595;DHT22;14238;49.496;8.154;2023-04-24T12:12:51;15.00;99.90
26595;DHT22;14238;49.496;8.154;2023-04-24T12:15:19;15.30;99.90
26595;DHT22;14238;49.496;8.154;2023-04-24T12:17:45;15.80;99.90
26595;DHT22;14238;49.496;8.154;2023-04-24T12:20:11;15.50;99.90
26595;DHT22;14238;49.496;8.154;2023-04-24T12:22:46;15.30;99.90
26595;DHT22;14238;49.496;8.154;2023-04-24T12:25:13;15.50;99.90
26595;DHT22;14238;49.496;8.154;2023-04-24T12:27:39;15.40;99.90
26595;DHT22;14238;49.496;8.154;2023-04-24T12:30:05;15.10;99.90
26595;DHT22;14238;49.496;8.154;2023-04-24T12:32:35;14.70;99.90
26595;DHT22;14238;49.496;8.154;2023-04-24T12:35:00;15.20;99.90
26595;DHT22;14238;49.496;8.154;2023-04-24T12:37:31;15.70;99.90
26595;DHT22;14238;49.496;8.154;2023-04-24T12:40:11;15.80;99.90
26595;DHT22;14238;49.496;8.154;2023-04-24T12:42:48;16.10;99.90
26595;DHT22;14238;49.496;8.154;2023-04-24T12:45:14;16.00;99.90
26595;DHT22;14238;49.496;8.154;2023-04-24T12:47:41;15.20;99.90
26595;DHT22;14238;49.496;8.154;2023-04-24T12:50:08;15.30;99.90
26595;DHT22;14238;49.496;8.154;2023-04-24T12:52:34;15.20;99.90
26595;DHT22;14238;49.496;8.154;2023-04-24T12:55:00;15.10;99.90
26595;DHT22;14238;49.496;8.154;2023-04-24T12:57:27;15.90;99.90
26595;DHT22;14238;49.496;8.154;2023-04-24T12:59:57;15.80;99.90
26595;DHT22;14238;49.496;8.154;2023-04-24T13:02:24;16.00;99.90
26595;DHT22;14238;49.496;8.154;2023-04-24T13:04:50;15.80;99.90
26595;DHT22;14238;49.496;8.154;2023-04-24T13:07:16;16.70;99.90
26595;DHT22;14238;49.496;8.154;2023-04-24T13:09:43;17.20;99.90
26595;DHT22;14238;49.496;8.154;2023-04-24T13:12:10;17.30;99.90
26595;DHT22;14238;49.496;8.154;2023-04-24T13:14:36;16.50;99.90
26595;DHT22;14238;49.496;8.154;2023-04-24T13:17:02;16.30;99.90
26595;DHT22;14238;49.496;8.154;2023-04-24T13:19:28;15.50;99.90
26595;DHT22;14238;49.496;8.154;2023-04-24T13:21:55;15.90;99.90
26595;DHT22;14238;49.496;8.154;2023-04-24T13:24:22;15.80;99.90
26595;DHT22;14238;49.496;8.154;2023-04-24T13:26:51;15.20;99.90
26595;DHT22;14238;49.496;8.154;2023-04-24T13:29:17;14.70;99.90
26595;DHT22;14238;49.496;8.154;2023-04-24T13:31:43;14.50;99.90
26595;DHT22;14238;49.496;8.154;2023-04-24T13:34:08;14.60;99.90
26595;DHT22;14238;49.496;8.154;2023-04-24T13:36:34;14.40;99.90
26595;DHT22;14238;49.496;8.154;2023-04-24T13:39:00;14.00;99.90
26595;DHT22;14238;49.496;8.154;2023-04-24T13:41:26;13.80;99.90
26595;DHT22;14238;49.496;8.154;2023-04-24T13:43:52;13.70;99.90
26595;DHT22;14238;49.496;8.154;2023-04-24T13:46:17;13.80;99.90
26595;DHT22;14238;49.496;8.154;2023-04-24T13:48:43;14.00;99.90
26595;DHT22;14238;49.496;8.154;2023-04-24T13:51:08;14.00;99.90
26595;DHT22;14238;49.496;8.154;2023-04-24T13:53:34;13.90;99.90
26595;DHT22;14238;49.496;8.154;2023-04-24T13:56:03;13.70;99.90
26595;DHT22;14238;49.496;8.154;2023-04-24T13:58:29;13.60;99.90
26595;DHT22;14238;49.496;8.154;2023-04-24T14:00:55;14.10;99.90
26595;DHT22;14238;49.496;8.154;2023-04-24T14:03:21;14.70;99.90
26595;DHT22;14238;49.496;8.154;2023-04-24T14:05:46;14.80;99.90
26595;DHT22;14238;49.496;8.154;2023-04-24T14:08:12;14.70;99.90
26595;DHT22;14238;49.496;8.154;2023-04-24T14:10:37;15.10;99.90
26595;DHT22;14238;49.496;8.154;2023-04-24T14:13:03;15.80;99.90
26595;DHT22;14238;49.496;8.154;2023-04-24T14:15:28;16.10;99.90
26595;DHT22;14238;49.496;8.154;2023-04-24T14:17:54;16.20;99.90
26595;DHT22;14238;49.496;8.154;2023-04-24T14:20:19;15.70;99.90
26595;DHT22;14238;49.496;8.154;2023-04-24T14:22:45;15.60;99.90
26595;DHT22;14238;49.496;8.154;2023-04-24T14:25:11;15.10;99.90
26595;DHT22;14238;49.496;8.154;2023-04-24T14:27:36;14.60;99.90
26595;DHT22;14238;49.496;8.154;2023-04-24T14:30:02;14.10;99.90
26595;DHT22;14238;49.496;8.154;2023-04-24T14:32:28;14.00;99.90
26595;DHT22;14238;49.496;8.154;2023-04-24T14:34:54;13.80;99.90
26595;DHT22;14238;49.496;8.154;2023-04-24T14:37:19;13.50;99.90
26595;DHT22;14238;49.496;8.154;2023-04-24T14:39:45;13.30;99.90
26595;DHT22;14238;49.496;8.154;2023-04-24T14:42:11;13.20;99.90
26595;DHT22;14238;49.496;8.154;2023-04-24T14:44:36;13.20;99.90
26595;DHT22;14238;49.496;8.154;2023-04-24T14:47:02;13.10;99.90
26595;DHT22;14238;49.496;8.154;2023-04-24T14:49:27;13.00;99.90
26595;DHT22;14238;49.496;8.154;2023-04-24T14:51:53;12.90;99.90
26595;DHT22;14238;49.496;8.154;2023-04-24T14:54:18;12.70;99.90
26595;DHT22;14238;49.496;8.154;2023-04-24T14:56:45;12.80;99.90
26595;DHT22;14238;49.496;8.154;2023-04-24T14:59:10;13.40;99.90
26595;DHT22;14238;49.496;8.154;2023-04-24T15:01:36;13.50;99.90
26595;DHT22;14238;49.496;8.154;2023-04-24T15:04:01;13.60;99.90
26595;DHT22;14238;49.496;8.154;2023-04-24T15:06:27;13.80;99.90
26595;DHT22;14238;49.496;8.154;2023-04-24T15:08:53;14.30;99.90
26595;DHT22;14238;49.496;8.154;2023-04-24T15:11:19;14.30;99.90
26595;DHT22;14238;49.496;8.154;2023-04-24T15:13:45;14.40;99.90
26595;DHT22;14238;49.496;8.154;2023-04-24T15:16:11;14.50;99.90
26595;DHT22;14238;49.496;8.154;2023-04-24T15:18:36;14.20;99.90
26595;DHT22;14238;49.496;8.154;2023-04-24T15:21:02;14.00;99.90
26595;DHT22;14238;49.496;8.154;2023-04-24T15:23:28;14.00;99.90
26595;DHT22;14238;49.496;8.154;2023-04-24T15:25:53;14.20;99.90
26595;DHT22;14238;49.496;8.154;2023-04-24T15:28:19;14.00;99.90
26595;DHT22;14238;49.496;8.154;2023-04-24T15:30:44;13.60;99.90
26595;DHT22;14238;49.496;8.154;2023-04-24T15:33:10;13.50;99.90
26595;DHT22;14238;49.496;8.154;2023-04-24T15:35:36;13.50;99.90
26595;DHT22;14238;49.496;8.154;2023-04-24T15:38:01;13.30;99.90
26595;DHT22;14238;49.496;8.154;2023-04-24T15:40:27;13.20;99.90